»·PEaware :: SWA467 KSNA-KSLC

SWA467 :: KSNA-KSLC

FLIGHT INFORMATION

Flight Status: Arrived
Operator:
Southwest Airlines
More flights by this operator :: More flights under this callsign
Pilot: Steve F. (26981)
Aircraft: BOEING 737-900
(B739)
More flights by this aircraft type
Origin: KSNA John Wayne-Orange Co
United States
Destination: KSLC Salt Lake City Intl
United States
More flights between these airports :: More routes between these airports
Route: FINZZ3 BEALE Q842 WINEN MLF QWENN5
File this flight plan on PilotEdge
Remarks:
Altitude:
(Current/Filed)
35,000ft
Speed:
(Current/Filed)
430kts
Departed: 05-Jul-23 03:31 PM
Arrived: 05-Jul-23 04:51 PM
Distance/Time
Traveled:
511nm/1:20
Distance/Time
To Go:
Arrived

Flight Plot

Page will automatically refresh every two minutes.

Flight plan parsing failed; only flown route is shown


Map Options




Map Legend


Flown Route
Filed Route
Departure Airport
Arrival Airport
Navaid (VOR, NDB)
Fix

Horizontal Profiles

Position Reports

Time Latitude Longitude Heading Altitude Ground
Speed
05-Jul-23 15:18 33.678100 -117.863235 116 64ft 0kts
05-Jul-23 15:19 33.678100 -117.863235 116 64ft 0kts
05-Jul-23 15:20 33.678100 -117.863235 116 64ft 0kts
05-Jul-23 15:21 33.678100 -117.863235 116 64ft 0kts
05-Jul-23 15:22 33.678100 -117.863235 116 64ft 0kts
05-Jul-23 15:23 33.678131 -117.863310 116 64ft 2kts
05-Jul-23 15:24 33.678263 -117.863945 35 64ft 1kts
05-Jul-23 15:25 33.678244 -117.863961 33 64ft 0kts
05-Jul-23 15:26 33.678244 -117.863961 33 64ft 0kts
05-Jul-23 15:27 33.679393 -117.863024 27 64ft 8kts
05-Jul-23 15:28 33.680450 -117.862655 284 64ft 5kts
05-Jul-23 15:29 33.681315 -117.864716 298 64ft 7kts
05-Jul-23 15:30 33.675638 -117.868871 207 64ft 121kts
05-Jul-23 15:31 33.628852 -117.891321 189 2354ft 216kts
05-Jul-23 15:32 33.566464 -117.903914 201 3297ft 246kts
05-Jul-23 15:33 33.512144 -117.960034 227 5873ft 272kts
05-Jul-23 15:34 33.507223 -118.044343 312 7920ft 284kts
05-Jul-23 15:35 33.563901 -118.107802 315 10143ft 294kts
05-Jul-23 15:36 33.642283 -118.107439 33 12565ft 329kts
05-Jul-23 15:37 33.730346 -118.047704 25 13534ft 396kts
05-Jul-23 15:38 33.832245 -117.988131 25 15632ft 414kts
05-Jul-23 15:39 33.934636 -117.920491 35 16967ft 423kts
05-Jul-23 15:40 34.028876 -117.832675 36 18579ft 433kts
05-Jul-23 15:41 34.119060 -117.735289 49 20184ft 443kts
05-Jul-23 15:42 34.197256 -117.617861 50 21649ft 452kts
05-Jul-23 15:43 34.277400 -117.498182 50 22916ft 461kts
05-Jul-23 15:44 34.359087 -117.376438 50 24052ft 470kts
05-Jul-23 15:45 34.441519 -117.252842 50 25072ft 479kts
05-Jul-23 15:46 34.525516 -117.126201 50 26067ft 486kts
05-Jul-23 15:47 34.612542 -116.998357 49 26991ft 493kts
05-Jul-23 15:48 34.700668 -116.870417 48 27795ft 500kts
05-Jul-23 15:49 34.789564 -116.739854 48 28875ft 498kts
05-Jul-23 15:50 34.878177 -116.610488 46 29972ft 495kts
05-Jul-23 15:51 34.971475 -116.487267 45 31035ft 493kts
05-Jul-23 15:52 35.063451 -116.363801 45 32036ft 492kts
05-Jul-23 15:53 35.155539 -116.240465 44 32975ft 490kts
05-Jul-23 15:54 35.246955 -116.117093 44 33826ft 488kts
05-Jul-23 15:55 35.314025 -116.026188 44 34357ft 488kts
05-Jul-23 15:56 35.405039 -115.902415 44 34901ft 490kts
05-Jul-23 15:57 35.496468 -115.777901 43 34909ft 488kts
05-Jul-23 15:58 35.587177 -115.653660 44 34904ft 489kts
05-Jul-23 16:00 35.677569 -115.529110 44 34909ft 489kts
05-Jul-23 16:01 35.767411 -115.404913 44 34916ft 489kts
05-Jul-23 16:02 35.858001 -115.279063 44 34924ft 489kts
05-Jul-23 16:03 35.948151 -115.153847 44 34927ft 488kts
05-Jul-23 16:04 36.038542 -115.028448 43 34914ft 492kts
05-Jul-23 16:05 36.129035 -114.901339 43 34876ft 491kts
05-Jul-23 16:06 36.230606 -114.794186 24 34852ft 477kts
05-Jul-23 16:07 36.347904 -114.716364 22 34850ft 476kts
05-Jul-23 16:08 36.463647 -114.639768 22 34857ft 475kts
05-Jul-23 16:09 36.580271 -114.562013 22 34853ft 476kts
05-Jul-23 16:10 36.697661 -114.483318 22 34878ft 476kts
05-Jul-23 16:11 36.810979 -114.396701 26 34896ft 480kts
05-Jul-23 16:12 36.923871 -114.307158 26 34909ft 481kts
05-Jul-23 16:13 37.036746 -114.218153 25 34935ft 481kts
05-Jul-23 16:14 37.150035 -114.128794 25 34945ft 481kts
05-Jul-23 16:15 37.263592 -114.038648 25 34951ft 482kts
05-Jul-23 16:16 37.376619 -113.948574 25 34961ft 481kts
05-Jul-23 16:17 37.489393 -113.858362 25 34979ft 482kts
05-Jul-23 16:18 37.602633 -113.767484 25 35002ft 482kts
05-Jul-23 16:19 37.717043 -113.675536 25 35039ft 490kts
05-Jul-23 16:20 37.831894 -113.582477 25 35098ft 489kts
05-Jul-23 16:21 37.944970 -113.486685 33 35089ft 495kts
05-Jul-23 16:22 38.047986 -113.370032 35 35090ft 498kts
05-Jul-23 16:23 38.151291 -113.252751 35 35084ft 498kts
05-Jul-23 16:24 38.254541 -113.134858 35 35075ft 499kts
05-Jul-23 16:25 38.359422 -113.021108 26 35073ft 489kts
05-Jul-23 16:26 38.480044 -112.948995 14 35071ft 477kts
05-Jul-23 16:27 38.602997 -112.884023 15 35078ft 478kts
05-Jul-23 16:28 38.725666 -112.818195 15 35087ft 478kts
05-Jul-23 16:28 38.827788 -112.763167 15 35091ft 478kts
05-Jul-23 16:30 38.970828 -112.685810 15 34713ft 480kts
05-Jul-23 16:31 39.093821 -112.619404 15 32103ft 483kts
05-Jul-23 16:32 39.218635 -112.551305 15 29402ft 490kts
05-Jul-23 16:32 39.323771 -112.493560 17 27157ft 498kts
05-Jul-23 16:33 39.450493 -112.420763 18 24455ft 490kts
05-Jul-23 16:34 39.571379 -112.351023 20 21747ft 461kts
05-Jul-23 16:36 39.704477 -112.274263 22 18601ft 437kts
05-Jul-23 16:37 39.813622 -112.210874 23 15938ft 421kts
05-Jul-23 16:37 39.898732 -112.161231 23 15022ft 385kts
05-Jul-23 16:38 39.997008 -112.103524 23 14756ft 390kts
05-Jul-23 16:39 40.093064 -112.045576 23 12973ft 369kts
05-Jul-23 16:40 40.183303 -111.990739 23 11479ft 341kts
05-Jul-23 16:42 40.277864 -111.938188 9 11000ft 298kts
05-Jul-23 16:42 40.347292 -111.932732 3 11026ft 301kts
05-Jul-23 16:43 40.429720 -111.932638 351 11034ft 300kts
05-Jul-23 16:44 40.511943 -111.942530 352 10624ft 286kts
05-Jul-23 16:45 40.585886 -111.951819 353 9690ft 229kts
05-Jul-23 16:47 40.651063 -111.959010 352 7812ft 174kts
05-Jul-23 16:47 40.689574 -111.963393 353 6186ft 162kts
05-Jul-23 16:48 40.734021 -111.968504 356 5044ft 160kts
05-Jul-23 16:49 40.777362 -111.973446 357 4238ft 149kts
05-Jul-23 16:50 40.795495 -111.976763 318 4235ft 8kts
05-Jul-23 16:51 40.795819 -111.977809 180 4235ft 10kts
05-Jul-23 16:52 40.792519 -111.977439 173 4235ft 11kts
05-Jul-23 16:53 40.790325 -111.978042 248 4235ft 6kts
05-Jul-23 16:54 40.789283 -111.978398 199 4235ft 0kts
05-Jul-23 16:55 40.789283 -111.978399 199 4235ft 0kts
05-Jul-23 16:56 40.789283 -111.978399 199 4235ft 0kts

Navigation Log

Ident Type
Flight plan parsing failed, navigation log unavailable